Time;durP1;ratioP1;P1;durP2;ratioP2;P2;SDS_P1;SDS_P2;PMS_P1;PMS_P2;Temp;Humidity;BMP_temperature;BMP_pressure;BME280_temperature;BME280_humidity;BME280_pressure;Samples;Min_cycle;Max_cycle;Signal;HPM_P1;HPM_P2
2021/12/08 00:00:34;;;;;;;17.60;10.27;;;1.00;92.20;;;;;;4935852;29;20185;-89
2021/12/08 00:03:03;;;;;;;20.97;10.57;;;1.10;92.20;;;;;;4936366;29;20264;-89
2021/12/08 00:05:29;;;;;;;16.57;9.53;;;1.10;92.10;;;;;;4937816;29;20178;-90
2021/12/08 00:07:58;;;;;;;31.90;14.13;;;1.20;92.00;;;;;;4936707;29;20200;-91
2021/12/08 00:13:07;;;;;;;43.33;22.40;;;1.20;91.90;;;;;;4937899;29;20154;-90
2021/12/08 00:15:38;;;;;;;38.23;19.57;;;1.30;91.80;;;;;;4937235;29;20228;-91
2021/12/08 00:18:07;;;;;;;56.97;30.27;;;1.30;91.70;;;;;;4936493;29;20192;-88
2021/12/08 00:20:35;;;;;;;20.20;12.23;;;1.20;91.70;;;;;;4936701;29;20220;-91
2021/12/08 00:23:02;;;;;;;58.83;28.40;;;1.30;91.70;;;;;;4936418;29;20184;-92
2021/12/08 00:25:29;;;;;;;60.77;29.83;;;1.30;91.50;;;;;;4937639;29;20176;-91
2021/12/08 00:27:55;;;;;;;35.03;18.57;;;1.30;91.50;;;;;;4937289;29;20691;-91
2021/12/08 00:30:21;;;;;;;53.07;29.67;;;1.30;91.40;;;;;;4936497;29;20253;-90
2021/12/08 00:32:48;;;;;;;52.83;26.00;;;1.30;91.30;;;;;;4935809;29;20182;-90
2021/12/08 00:35:14;;;;;;;50.93;27.53;;;1.40;91.20;;;;;;4936030;29;20541;-91
2021/12/08 00:37:40;;;;;;;49.90;27.30;;;1.40;91.10;;;;;;4935679;29;20588;-91
2021/12/08 00:40:09;;;;;;;53.90;30.20;;;1.30;91.10;;;;;;4935956;29;20603;-91
2021/12/08 00:42:36;;;;;;;44.93;25.00;;;1.30;91.00;;;;;;4935914;29;20257;-91
2021/12/08 00:45:04;;;;;;;49.33;26.00;;;1.30;91.00;;;;;;4935921;29;20182;-92
2021/12/08 00:47:30;;;;;;;54.13;29.10;;;1.30;91.00;;;;;;4936122;29;20672;-93
2021/12/08 00:49:55;;;;;;;53.07;27.03;;;1.40;90.90;;;;;;4936198;29;20234;-91
2021/12/08 00:52:21;;;;;;;52.57;29.20;;;1.40;90.80;;;;;;4936706;29;20643;-90
2021/12/08 00:54:47;;;;;;;53.27;28.00;;;1.40;90.80;;;;;;4936218;29;20559;-91
2021/12/08 00:57:13;;;;;;;46.87;28.00;;;1.40;90.80;;;;;;4936699;29;20570;-92
2021/12/08 00:59:38;;;;;;;45.67;24.57;;;1.40;90.90;;;;;;4936119;29;20191;-91
2021/12/08 01:02:05;;;;;;;56.57;31.37;;;1.40;90.80;;;;;;4935597;29;20182;-90
2021/12/08 01:04:32;;;;;;;48.33;27.20;;;1.40;90.80;;;;;;4935354;29;20239;-91
2021/12/08 01:06:59;;;;;;;43.17;24.30;;;1.40;90.80;;;;;;4935200;29;20183;-90
2021/12/08 01:09:25;;;;;;;46.43;27.73;;;1.40;90.90;;;;;;4935601;29;20578;-92
2021/12/08 01:11:50;;;;;;;44.03;24.50;;;1.40;90.90;;;;;;4936533;29;20174;-91
2021/12/08 01:14:16;;;;;;;49.57;25.37;;;1.40;90.90;;;;;;4935780;29;20197;-92
2021/12/08 01:16:42;;;;;;;25.90;12.53;;;1.50;90.90;;;;;;4935747;29;20179;-92
2021/12/08 01:19:08;;;;;;;46.70;27.00;;;1.50;90.80;;;;;;4935513;29;20209;-91
2021/12/08 01:21:36;;;;;;;51.20;26.60;;;1.50;90.70;;;;;;4935533;29;20184;-91
2021/12/08 01:24:01;;;;;;;48.13;23.40;;;1.50;90.80;;;;;;4935193;29;20647;-91
2021/12/08 01:26:27;;;;;;;43.07;22.37;;;1.50;90.60;;;;;;4934973;29;20188;-90
2021/12/08 01:28:56;;;;;;;50.57;28.43;;;1.50;90.60;;;;;;4935917;29;20210;-89
2021/12/08 01:31:23;;;;;;;48.83;24.83;;;1.60;90.60;;;;;;4935100;29;20177;-89
2021/12/08 01:33:49;;;;;;;34.57;18.87;;;1.50;90.60;;;;;;4936188;29;20548;-90
2021/12/08 01:36:15;;;;;;;42.10;23.60;;;1.60;90.70;;;;;;4934996;29;20189;-90
2021/12/08 01:38:41;;;;;;;42.47;22.87;;;1.50;90.70;;;;;;4935162;29;20201;-89
2021/12/08 01:41:07;;;;;;;45.33;25.57;;;1.60;90.70;;;;;;4935489;29;20584;-88
2021/12/08 01:46:29;;;;;;;44.53;21.03;;;1.60;90.60;;;;;;4919003;29;20553;-91
2021/12/08 01:48:55;;;;;;;41.13;21.50;;;1.50;90.70;;;;;;4935119;29;20190;-92
2021/12/08 01:51:21;;;;;;;44.97;22.77;;;1.60;90.50;;;;;;4935241;29;20201;-91
2021/12/08 01:53:52;;;;;;;41.67;23.30;;;1.60;90.40;;;;;;4935183;29;20649;-92
2021/12/08 01:56:22;;;;;;;44.60;25.87;;;1.60;90.30;;;;;;4935492;29;20561;-91
2021/12/08 01:58:47;;;;;;;43.77;25.47;;;1.60;90.40;;;;;;4935018;29;20197;-91
2021/12/08 02:01:16;;;;;;;38.00;20.50;;;1.60;90.40;;;;;;4936299;29;20521;-91
2021/12/08 02:03:42;;;;;;;43.87;21.97;;;1.60;90.30;;;;;;4935702;29;20554;-91
2021/12/08 02:06:10;;;;;;;41.20;20.67;;;1.70;90.10;;;;;;4936845;29;20180;-92
2021/12/08 02:08:36;;;;;;;31.13;19.27;;;1.70;90.10;;;;;;4935532;29;20552;-92
2021/12/08 02:11:03;;;;;;;33.70;18.93;;;1.70;90.00;;;;;;4935477;29;20752;-92
2021/12/08 02:13:35;;;;;;;33.43;16.10;;;1.80;89.70;;;;;;4935677;29;20180;-91
2021/12/08 02:16:02;;;;;;;33.07;19.03;;;1.80;89.40;;;;;;4935553;29;20175;-91
2021/12/08 02:18:28;;;;;;;37.10;19.27;;;1.80;89.40;;;;;;4935097;29;20194;-91
2021/12/08 02:20:57;;;;;;;38.73;21.43;;;1.80;89.30;;;;;;4935578;29;20330;-91
2021/12/08 02:23:22;;;;;;;42.40;23.37;;;1.80;89.40;;;;;;4937364;29;20180;-92
2021/12/08 02:25:49;;;;;;;36.73;21.43;;;1.80;89.30;;;;;;4938893;29;20185;-91
2021/12/08 02:28:16;;;;;;;40.60;24.40;;;1.80;89.30;;;;;;4938845;29;20245;-91
2021/12/08 02:30:47;;;;;;;31.10;17.40;;;1.80;89.30;;;;;;4939401;29;20736;-92
2021/12/08 02:49:31;;;;;;;43.60;23.33;;;2.00;88.70;;;;;;4940054;29;20200;-91
2021/12/08 02:51:57;;;;;;;38.37;20.60;;;2.00;88.60;;;;;;4938469;29;20294;-92
2021/12/08 02:54:22;;;;;;;31.37;18.27;;;2.00;88.90;;;;;;4938845;29;20261;-91
2021/12/08 02:56:48;;;;;;;39.33;22.93;;;2.00;88.80;;;;;;4938564;29;20619;-92
2021/12/08 02:59:14;;;;;;;40.33;22.20;;;2.00;88.60;;;;;;4939114;29;20313;-91
2021/12/08 03:01:41;;;;;;;36.67;22.80;;;2.00;88.70;;;;;;4938383;29;20199;-91
2021/12/08 03:04:08;;;;;;;33.90;19.80;;;2.00;88.60;;;;;;4938541;29;20652;-91
2021/12/08 03:06:35;;;;;;;35.03;19.73;;;2.10;88.40;;;;;;4938462;29;20552;-92
2021/12/08 03:09:02;;;;;;;35.43;20.37;;;2.10;88.40;;;;;;4938496;29;20206;-92
2021/12/08 03:11:28;;;;;;;33.33;18.77;;;2.10;88.30;;;;;;4938435;29;20183;-91
2021/12/08 03:14:14;;;;;;;30.90;18.07;;;2.10;88.10;;;;;;4938387;29;20185;-91
2021/12/08 03:16:45;;;;;;;36.80;19.33;;;2.10;88.10;;;;;;4937965;29;20185;-91
2021/12/08 03:19:11;;;;;;;32.80;20.03;;;2.10;88.00;;;;;;4938349;29;20301;-91
2021/12/08 03:21:39;;;;;;;31.93;20.53;;;2.10;88.00;;;;;;4938366;29;20765;-91
2021/12/08 03:26:45;;;;;;;34.43;20.63;;;2.20;87.90;;;;;;4939559;29;20583;-92
2021/12/08 03:29:23;;;;;;;33.70;21.67;;;2.20;88.00;;;;;;4938034;29;20225;-92
2021/12/08 03:31:52;;;;;;;29.20;18.17;;;2.10;88.00;;;;;;4937976;29;20641;-92
2021/12/08 03:34:24;;;;;;;32.63;19.47;;;2.20;87.70;;;;;;4936602;29;20180;-92
2021/12/08 03:36:50;;;;;;;31.07;19.30;;;2.20;87.50;;;;;;4938561;29;20532;-91
2021/12/08 03:39:16;;;;;;;29.17;18.27;;;2.20;87.50;;;;;;4937710;29;20210;-92
2021/12/08 03:41:42;;;;;;;33.93;20.13;;;2.20;87.50;;;;;;4937802;29;20187;-92
2021/12/08 03:44:08;;;;;;;34.47;19.63;;;2.30;87.40;;;;;;4937962;29;20263;-92
2021/12/08 03:46:39;;;;;;;34.27;21.30;;;2.30;87.50;;;;;;4937586;29;20210;-92
2021/12/08 03:49:09;;;;;;;33.77;21.00;;;2.20;87.50;;;;;;4937741;29;20218;-92
2021/12/08 03:51:35;;;;;;;32.03;20.00;;;2.30;87.60;;;;;;4938166;29;20709;-92
2021/12/08 03:54:00;;;;;;;29.33;19.90;;;2.20;87.50;;;;;;4937791;29;20210;-92
2021/12/08 03:56:26;;;;;;;32.93;19.70;;;2.30;87.60;;;;;;4937627;29;20183;-92
2021/12/08 03:58:52;;;;;;;32.90;19.30;;;2.30;87.40;;;;;;4937536;29;20198;-91
2021/12/08 04:01:17;;;;;;;33.53;19.07;;;2.30;87.10;;;;;;4937289;29;20175;-92
2021/12/08 04:03:49;;;;;;;35.40;18.33;;;2.30;87.30;;;;;;4937993;29;20191;-92
2021/12/08 04:06:28;;;;;;;29.80;19.13;;;2.30;87.40;;;;;;4937517;29;20247;-92
2021/12/08 04:08:56;;;;;;;30.73;18.60;;;2.30;87.40;;;;;;4937402;29;20198;-92
2021/12/08 04:11:24;;;;;;;31.23;18.53;;;2.30;87.60;;;;;;4937450;29;20272;-92
2021/12/08 04:14:04;;;;;;;27.03;17.30;;;2.30;87.80;;;;;;4938559;29;20602;-92
2021/12/08 04:16:34;;;;;;;27.37;16.90;;;2.10;88.30;;;;;;4937425;29;20171;-92
2021/12/08 04:19:03;;;;;;;33.27;19.07;;;2.00;88.80;;;;;;4937369;29;20207;-92
2021/12/08 04:21:30;;;;;;;29.87;18.13;;;1.90;89.30;;;;;;4938131;29;20637;-92
2021/12/08 04:23:56;;;;;;;25.17;16.20;;;1.80;89.90;;;;;;4938044;29;20217;-92
2021/12/08 04:26:36;;;;;;;32.20;17.47;;;1.70;90.30;;;;;;4937401;29;20711;-92
2021/12/08 04:29:05;;;;;;;28.03;18.80;;;1.70;90.70;;;;;;4937297;29;20602;-92
2021/12/08 04:31:35;;;;;;;34.43;17.23;;;1.60;91.00;;;;;;4937890;29;20179;-91
2021/12/08 04:34:05;;;;;;;33.67;17.13;;;1.60;91.30;;;;;;4937449;29;20194;-92
2021/12/08 04:36:39;;;;;;;30.50;16.87;;;1.60;91.50;;;;;;4937782;29;20266;-92
2021/12/08 04:39:12;;;;;;;31.97;20.10;;;1.50;91.70;;;;;;4967752;23;20221;-93
2021/12/08 04:41:44;;;;;;;31.27;19.13;;;1.50;91.90;;;;;;4961696;28;20174;-91
2021/12/08 04:50:15;;;;;;;30.23;19.27;;;1.50;92.30;;;;;;4957408;28;20211;-90
2021/12/08 05:04:25;;;;;;;30.60;18.63;;;1.40;92.70;;;;;;4961356;28;20166;-92
2021/12/08 05:09:33;;;;;;;28.07;18.90;;;1.40;92.80;;;;;;4960939;28;20226;-94
2021/12/08 05:12:31;;;;;;;32.63;19.73;;;1.40;92.80;;;;;;4959930;28;20182;-94
2021/12/08 05:15:15;;;;;;;34.13;19.90;;;1.40;92.80;;;;;;4958667;28;20187;-93
2021/12/08 05:18:02;;;;;;;32.20;20.57;;;1.30;92.90;;;;;;4958952;28;20174;-92
2021/12/08 05:20:42;;;;;;;34.20;19.40;;;1.30;93.00;;;;;;4958622;29;20207;-94
2021/12/08 05:23:28;;;;;;;32.50;20.03;;;1.30;93.00;;;;;;4959540;28;20179;-93
2021/12/08 05:25:54;;;;;;;35.60;19.93;;;1.30;93.10;;;;;;4960308;28;20201;-93
2021/12/08 05:28:24;;;;;;;33.73;19.87;;;1.30;93.10;;;;;;4959554;28;20182;-92
2021/12/08 05:30:58;;;;;;;32.40;19.60;;;1.30;93.20;;;;;;4960149;28;20223;-93
2021/12/08 05:33:25;;;;;;;27.07;18.77;;;1.30;93.10;;;;;;4960335;28;20162;-92
2021/12/08 05:35:51;;;;;;;32.13;19.13;;;1.30;93.10;;;;;;4960893;28;20182;-92
2021/12/08 05:38:18;;;;;;;33.73;21.63;;;1.20;93.20;;;;;;4960632;28;20176;-93
2021/12/08 05:40:52;;;;;;;31.03;18.97;;;1.20;93.20;;;;;;4958987;28;20214;-94
2021/12/08 05:43:19;;;;;;;26.63;18.03;;;1.20;93.30;;;;;;4960159;28;20159;-93
2021/12/08 05:45:48;;;;;;;30.20;19.07;;;1.10;93.30;;;;;;4961073;28;20184;-92
2021/12/08 05:48:14;;;;;;;32.30;18.80;;;1.10;93.40;;;;;;4960156;28;20160;-92
2021/12/08 05:50:50;;;;;;;28.17;19.47;;;1.10;93.40;;;;;;4960431;28;20268;-92
2021/12/08 05:53:16;;;;;;;28.47;18.77;;;1.10;93.50;;;;;;4960805;28;20154;-90
2021/12/08 05:55:44;;;;;;;29.70;19.60;;;1.00;93.50;;;;;;4960733;28;20193;-90
2021/12/08 05:58:11;;;;;;;29.80;19.53;;;1.00;93.60;;;;;;4962065;28;20166;-92
2021/12/08 06:00:43;;;;;;;27.07;19.03;;;1.10;93.60;;;;;;4964325;28;20203;-92
2021/12/08 06:03:10;;;;;;;26.50;17.97;;;1.00;93.70;;;;;;4964472;28;20157;-91
2021/12/08 06:05:36;;;;;;;26.50;17.53;;;1.00;93.70;;;;;;4964365;28;20211;-91
2021/12/08 06:08:02;;;;;;;27.90;18.30;;;1.00;93.70;;;;;;4964467;28;20191;-92
2021/12/08 06:10:34;;;;;;;25.40;17.50;;;1.00;93.80;;;;;;4963506;28;20206;-93
2021/12/08 06:13:02;;;;;;;29.00;18.90;;;1.00;93.80;;;;;;4961106;29;20227;-94
2021/12/08 06:15:28;;;;;;;29.30;16.73;;;1.10;93.90;;;;;;4957457;29;20258;-94
2021/12/08 06:17:54;;;;;;;23.20;16.37;;;1.10;93.90;;;;;;4956735;29;20227;-94
2021/12/08 06:20:20;;;;;;;23.73;16.93;;;1.10;93.90;;;;;;4953819;29;20253;-93
2021/12/08 06:22:49;;;;;;;24.20;16.27;;;1.10;94.00;;;;;;4951933;29;20219;-94
2021/12/08 06:25:16;;;;;;;22.23;15.30;;;1.20;94.00;;;;;;4951899;29;20187;-94
2021/12/08 06:27:42;;;;;;;22.87;13.70;;;1.30;94.00;;;;;;4950262;29;20187;-93
2021/12/08 06:30:12;;;;;;;13.80;9.10;;;1.30;93.90;;;;;;4954580;29;20228;-93
2021/12/08 06:32:37;;;;;;;18.17;13.60;;;1.30;93.90;;;;;;4948864;29;20631;-93
2021/12/08 06:35:09;;;;;;;22.20;13.40;;;1.40;93.90;;;;;;4953189;29;20190;-93
2021/12/08 06:37:39;;;;;;;21.00;12.57;;;1.40;93.90;;;;;;4954051;29;20171;-93
2021/12/08 06:40:16;;;;;;;18.50;12.53;;;1.40;93.80;;;;;;4953740;29;20227;-93
2021/12/08 06:42:45;;;;;;;21.47;13.50;;;1.50;93.90;;;;;;4957238;29;20251;-93
2021/12/08 06:45:16;;;;;;;17.43;13.50;;;1.40;93.80;;;;;;4955578;29;20183;-93
2021/12/08 06:47:43;;;;;;;19.40;12.80;;;1.40;93.80;;;;;;4956605;29;20188;-94
2021/12/08 06:50:22;;;;;;;18.47;13.53;;;1.40;93.70;;;;;;4955550;29;20214;-93
2021/12/08 06:52:49;;;;;;;20.10;14.77;;;1.40;93.80;;;;;;4952650;29;20163;-93
2021/12/08 06:55:19;;;;;;;20.87;15.13;;;1.40;93.70;;;;;;4955436;29;20732;-93
2021/12/08 06:58:02;;;;;;;24.30;15.33;;;1.30;93.80;;;;;;4955699;29;20238;-93
2021/12/08 07:00:48;;;;;;;22.80;16.23;;;1.40;93.80;;;;;;4952706;29;20211;-93
2021/12/08 07:06:09;;;;;;;16.87;12.90;;;1.30;93.80;;;;;;4957615;29;20164;-93
2021/12/08 07:08:48;;;;;;;23.13;13.57;;;1.30;93.80;;;;;;4956765;29;20227;-93
2021/12/08 07:11:17;;;;;;;21.43;15.07;;;1.30;93.90;;;;;;4960266;29;20180;-93
2021/12/08 07:13:45;;;;;;;20.30;14.87;;;1.30;93.90;;;;;;4959297;28;20191;-93
2021/12/08 07:16:18;;;;;;;20.67;14.63;;;1.30;93.90;;;;;;4959770;29;20192;-93
2021/12/08 07:18:54;;;;;;;19.80;14.37;;;1.30;93.90;;;;;;4960902;28;20190;-93
2021/12/08 07:21:23;;;;;;;22.67;14.37;;;1.30;94.00;;;;;;4961526;28;20173;-94
2021/12/08 07:23:56;;;;;;;21.37;15.80;;;1.30;94.00;;;;;;4962013;28;20202;-93
2021/12/08 07:26:27;;;;;;;18.80;14.67;;;1.30;94.00;;;;;;4962748;28;20157;-93
2021/12/08 07:28:56;;;;;;;20.53;15.53;;;1.40;94.00;;;;;;4962262;28;20255;-93
2021/12/08 07:31:29;;;;;;;19.13;15.47;;;1.40;94.00;;;;;;4962724;28;20175;-92
2021/12/08 07:34:03;;;;;;;18.77;15.30;;;1.40;94.00;;;;;;4962646;28;20242;-94
2021/12/08 07:36:30;;;;;;;20.07;15.67;;;1.50;94.00;;;;;;4960622;28;20153;-93
2021/12/08 07:38:59;;;;;;;21.83;16.17;;;1.50;94.10;;;;;;4961924;28;20207;-90
2021/12/08 07:41:31;;;;;;;18.93;15.60;;;1.50;94.00;;;;;;4962762;28;20179;-92
2021/12/08 07:44:06;;;;;;;23.53;16.03;;;1.50;94.00;;;;;;4962659;28;20210;-93
2021/12/08 07:46:39;;;;;;;22.50;16.37;;;1.60;94.00;;;;;;4962777;28;20167;-92
2021/12/08 07:49:19;;;;;;;21.83;15.00;;;1.60;94.00;;;;;;4962190;28;20234;-92
2021/12/08 07:51:57;;;;;;;21.33;15.67;;;1.60;94.00;;;;;;4961835;28;20179;-92
2021/12/08 07:54:24;;;;;;;20.23;14.37;;;1.60;94.00;;;;;;4962489;28;20162;-91
2021/12/08 07:56:54;;;;;;;23.07;16.83;;;1.60;93.90;;;;;;4962370;28;20162;-92
2021/12/08 07:59:20;;;;;;;19.57;16.07;;;1.60;93.90;;;;;;4962490;28;20183;-89
2021/12/08 08:01:50;;;;;;;21.47;16.60;;;1.70;93.90;;;;;;4962230;28;20245;-92
2021/12/08 08:04:22;;;;;;;23.07;15.07;;;1.60;93.90;;;;;;4962398;28;20149;-91
2021/12/08 08:06:56;;;;;;;20.73;15.57;;;1.60;93.90;;;;;;4962271;28;20191;-92
2021/12/08 08:09:26;;;;;;;22.63;15.30;;;1.60;93.90;;;;;;4961895;28;20241;-93
2021/12/08 08:11:57;;;;;;;18.67;14.53;;;1.70;94.00;;;;;;4961382;28;20156;-94
2021/12/08 08:14:39;;;;;;;21.40;14.43;;;1.70;93.90;;;;;;4961371;28;20185;-92
2021/12/08 08:17:12;;;;;;;18.97;15.30;;;1.70;93.90;;;;;;4962014;28;20175;-93
2021/12/08 08:19:44;;;;;;;18.73;14.47;;;1.80;93.90;;;;;;4961826;28;20240;-91
2021/12/08 08:22:18;;;;;;;15.33;12.47;;;1.80;93.90;;;;;;4961081;28;20163;-93
2021/12/08 08:24:44;;;;;;;18.50;15.50;;;1.80;93.90;;;;;;4961356;28;20170;-92
2021/12/08 08:27:12;;;;;;;22.57;16.07;;;1.80;93.90;;;;;;4961175;28;20239;-93
2021/12/08 08:29:39;;;;;;;18.77;15.37;;;1.80;93.90;;;;;;4961194;28;20231;-93
2021/12/08 08:32:22;;;;;;;20.13;15.20;;;1.80;93.90;;;;;;4961051;28;20190;-94
2021/12/08 08:34:52;;;;;;;24.40;15.67;;;1.90;93.80;;;;;;4961077;28;20167;-93
2021/12/08 08:37:19;;;;;;;16.97;14.30;;;1.90;93.90;;;;;;4961089;28;20176;-93
2021/12/08 08:39:56;;;;;;;26.37;15.37;;;1.90;93.80;;;;;;4960625;28;20226;-93
2021/12/08 08:42:26;;;;;;;19.43;14.63;;;1.90;93.80;;;;;;4960642;29;20176;-94
2021/12/08 08:44:58;;;;;;;17.27;13.40;;;2.00;93.80;;;;;;4958272;28;20176;-93
2021/12/08 08:47:31;;;;;;;14.50;12.90;;;2.00;93.70;;;;;;4952942;29;20174;-93
2021/12/08 08:49:57;;;;;;;19.53;13.87;;;2.00;93.60;;;;;;4953384;29;20211;-93
2021/12/08 08:52:43;;;;;;;19.57;13.17;;;2.00;93.60;;;;;;4956335;29;20178;-93
2021/12/08 08:55:22;;;;;;;17.47;14.17;;;2.00;93.60;;;;;;4952066;29;20218;-93
2021/12/08 08:57:48;;;;;;;16.77;12.93;;;2.00;93.60;;;;;;4955816;29;20173;-93
2021/12/08 09:00:26;;;;;;;18.83;12.93;;;2.10;93.70;;;;;;4946960;29;20207;-93
2021/12/08 09:02:54;;;;;;;13.87;12.27;;;2.10;93.60;;;;;;4942609;29;20215;-93
2021/12/08 09:05:29;;;;;;;18.40;13.43;;;2.10;93.60;;;;;;4945407;29;20325;-93
2021/12/08 09:07:57;;;;;;;19.07;13.10;;;2.20;93.60;;;;;;4945958;29;20189;-93
2021/12/08 09:10:42;;;;;;;14.83;12.03;;;2.20;93.50;;;;;;4944867;29;20262;-93
2021/12/08 09:13:14;;;;;;;18.03;12.67;;;2.20;93.50;;;;;;4942729;29;20172;-93
2021/12/08 09:15:49;;;;;;;14.60;12.20;;;2.20;93.50;;;;;;4942789;29;20196;-93
2021/12/08 09:18:30;;;;;;;18.20;13.27;;;2.30;93.50;;;;;;4943668;29;20632;-93
2021/12/08 09:21:15;;;;;;;14.53;12.73;;;2.30;93.40;;;;;;4944161;29;20215;-93
2021/12/08 09:23:56;;;;;;;16.17;13.57;;;2.30;93.40;;;;;;4941968;29;20215;-93
2021/12/08 09:26:24;;;;;;;14.60;12.30;;;2.30;93.30;;;;;;4941520;29;20178;-93
2021/12/08 09:29:01;;;;;;;17.83;14.00;;;2.30;93.30;;;;;;4943630;29;20210;-93
2021/12/08 09:31:33;;;;;;;19.43;14.23;;;2.40;93.30;;;;;;4943205;29;20182;-93
2021/12/08 09:34:17;;;;;;;18.53;14.23;;;2.40;93.30;;;;;;4946097;29;20168;-93
2021/12/08 09:36:50;;;;;;;24.07;13.10;;;2.40;93.20;;;;;;4950517;29;20156;-93
2021/12/08 09:39:25;;;;;;;18.93;13.60;;;2.50;93.20;;;;;;4945068;29;20308;-93
2021/12/08 09:42:03;;;;;;;18.70;13.20;;;2.50;93.20;;;;;;4950474;29;20176;-93
2021/12/08 09:44:47;;;;;;;16.43;12.83;;;2.50;93.00;;;;;;4953285;29;20179;-93
2021/12/08 09:47:14;;;;;;;17.47;12.60;;;2.50;93.10;;;;;;4946649;29;20167;-93
2021/12/08 09:49:40;;;;;;;19.17;13.23;;;2.50;92.90;;;;;;4945372;29;20231;-93
2021/12/08 09:52:08;;;;;;;17.97;12.97;;;2.50;93.00;;;;;;4945621;29;20184;-93
2021/12/08 09:54:35;;;;;;;18.13;13.43;;;2.60;92.90;;;;;;4947555;29;20539;-93
2021/12/08 09:57:06;;;;;;;20.00;12.23;;;2.60;92.80;;;;;;4944252;29;20244;-93
2021/12/08 09:59:33;;;;;;;13.60;12.07;;;2.60;92.80;;;;;;4941494;29;20196;-93
2021/12/08 10:02:03;;;;;;;14.47;11.70;;;2.60;92.80;;;;;;4943923;29;20180;-93
2021/12/08 10:04:29;;;;;;;14.30;11.40;;;2.60;92.70;;;;;;4946673;28;20153;-93
2021/12/08 10:06:59;;;;;;;13.20;10.97;;;2.60;92.80;;;;;;4947893;29;20263;-93
2021/12/08 10:09:25;;;;;;;13.13;11.27;;;2.70;92.70;;;;;;4946734;29;20239;-93
2021/12/08 10:11:54;;;;;;;15.20;11.10;;;2.70;92.80;;;;;;4952745;29;20167;-93
2021/12/08 10:14:20;;;;;;;18.07;12.87;;;2.70;92.60;;;;;;4953800;29;20177;-93
2021/12/08 10:16:48;;;;;;;13.73;10.27;;;2.70;92.60;;;;;;4952747;29;20276;-93
2021/12/08 10:19:17;;;;;;;18.77;12.60;;;2.80;92.70;;;;;;4950434;29;20291;-94
2021/12/08 10:21:44;;;;;;;15.20;10.27;;;2.80;92.60;;;;;;4947412;29;20184;-93
2021/12/08 10:24:13;;;;;;;19.20;12.27;;;2.80;92.50;;;;;;4947835;29;20172;-94
2021/12/08 10:26:38;;;;;;;18.17;11.80;;;2.80;92.40;;;;;;4946623;29;20188;-93
2021/12/08 10:29:06;;;;;;;17.70;11.80;;;2.90;92.50;;;;;;4949938;29;20200;-93
2021/12/08 10:31:48;;;;;;;14.67;11.13;;;3.00;92.50;;;;;;4951809;29;20176;-93
2021/12/08 10:37:04;;;;;;;16.13;11.40;;;3.00;92.40;;;;;;4948332;29;20175;-93
2021/12/08 10:39:42;;;;;;;17.43;11.63;;;3.00;92.30;;;;;;4967178;23;20653;-92
2021/12/08 10:42:33;;;;;;;15.47;12.30;;;3.00;92.30;;;;;;4937690;29;20176;-92
2021/12/08 10:45:09;;;;;;;20.83;13.87;;;3.10;92.20;;;;;;4939481;29;20165;-92
2021/12/08 10:47:36;;;;;;;19.27;12.03;;;3.10;92.10;;;;;;4942016;29;20254;-91
2021/12/08 10:55:57;;;;;;;36.47;16.47;;;3.10;92.00;;;;;;4942484;29;20220;-92
2021/12/08 10:58:27;;;;;;;35.40;15.87;;;3.00;91.80;;;;;;4940304;29;20181;-91
2021/12/08 11:00:55;;;;;;;23.07;13.30;;;3.00;91.80;;;;;;4941372;29;20265;-92
2021/12/08 11:03:21;;;;;;;20.40;12.80;;;3.00;91.80;;;;;;4942124;29;20229;-91
2021/12/08 11:05:59;;;;;;;25.67;16.00;;;3.00;91.80;;;;;;4941042;29;20213;-92
2021/12/08 11:08:39;;;;;;;23.37;13.60;;;3.00;91.70;;;;;;4941987;29;20250;-91
2021/12/08 11:11:11;;;;;;;27.40;14.03;;;3.00;91.70;;;;;;4940722;29;20200;-90
2021/12/08 11:13:46;;;;;;;27.83;15.17;;;3.00;91.70;;;;;;4939633;29;20634;-92
2021/12/08 11:16:20;;;;;;;18.13;11.20;;;3.00;91.80;;;;;;4939283;29;20519;-91
2021/12/08 11:19:02;;;;;;;21.37;12.20;;;3.10;91.80;;;;;;4938705;29;20261;-91
2021/12/08 11:21:35;;;;;;;18.17;11.73;;;3.10;91.90;;;;;;4939486;29;20162;-90
2021/12/08 11:24:03;;;;;;;28.13;15.80;;;3.10;91.90;;;;;;4939455;29;20168;-92
2021/12/08 11:26:37;;;;;;;21.47;13.70;;;3.10;91.90;;;;;;4940182;29;20182;-91
2021/12/08 11:29:21;;;;;;;16.13;11.13;;;3.20;92.00;;;;;;4940730;29;20196;-91
2021/12/08 11:32:05;;;;;;;16.40;12.37;;;3.20;91.90;;;;;;4940789;29;20645;-91
2021/12/08 11:34:43;;;;;;;20.63;12.70;;;3.20;91.90;;;;;;4941309;29;20238;-92
2021/12/08 11:37:15;;;;;;;18.03;12.47;;;3.20;91.90;;;;;;4940310;29;20626;-91
2021/12/08 11:39:43;;;;;;;17.47;12.67;;;3.30;91.90;;;;;;4939720;29;20307;-92
2021/12/08 11:42:18;;;;;;;18.07;12.73;;;3.30;91.90;;;;;;4938370;29;20176;-90
2021/12/08 11:44:47;;;;;;;17.60;12.33;;;3.30;91.80;;;;;;4938666;29;20182;-92
2021/12/08 11:47:21;;;;;;;17.70;11.70;;;3.30;91.80;;;;;;4938054;29;20551;-91
2021/12/08 11:49:52;;;;;;;17.80;11.73;;;3.30;91.70;;;;;;4938226;29;20616;-91
2021/12/08 11:52:23;;;;;;;17.93;11.27;;;3.30;91.70;;;;;;4938930;29;20184;-91
2021/12/08 11:55:00;;;;;;;14.33;11.03;;;3.30;91.60;;;;;;4938104;29;20207;-91
2021/12/08 11:57:33;;;;;;;17.90;11.33;;;3.40;91.60;;;;;;4937749;29;20172;-89
2021/12/08 12:00:19;;;;;;;15.93;11.17;;;3.40;91.60;;;;;;4938006;29;20207;-90
2021/12/08 12:02:54;;;;;;;17.00;10.50;;;3.40;91.70;;;;;;4936829;29;20180;-89
2021/12/08 12:05:24;;;;;;;15.07;10.53;;;3.40;91.60;;;;;;4936660;29;20176;-91
2021/12/08 12:07:50;;;;;;;15.87;11.07;;;3.50;91.70;;;;;;4939024;29;20542;-91
2021/12/08 12:10:18;;;;;;;15.27;10.80;;;3.60;91.50;;;;;;4938679;29;20215;-92
2021/12/08 12:12:45;;;;;;;14.00;10.33;;;3.50;91.30;;;;;;4939114;29;20180;-92
2021/12/08 12:15:14;;;;;;;15.87;11.07;;;3.50;91.40;;;;;;4937936;29;20267;-91
2021/12/08 12:17:40;;;;;;;16.17;10.60;;;3.50;91.30;;;;;;4939767;29;20180;-91
2021/12/08 12:20:16;;;;;;;16.03;11.40;;;3.50;91.40;;;;;;4939686;29;20208;-91
2021/12/08 12:23:03;;;;;;;17.47;11.43;;;3.50;91.30;;;;;;4941580;29;20168;-92
2021/12/08 12:25:50;;;;;;;17.33;12.00;;;3.50;91.30;;;;;;4941048;29;20176;-91
2021/12/08 12:28:34;;;;;;;18.00;10.63;;;3.50;91.40;;;;;;4940653;29;20168;-90
2021/12/08 12:31:30;;;;;;;16.13;10.37;;;3.50;91.50;;;;;;4939104;29;20677;-91
2021/12/08 12:33:56;;;;;;;17.33;10.63;;;3.40;91.30;;;;;;4937004;29;20230;-91
2021/12/08 12:36:23;;;;;;;14.67;9.57;;;3.40;91.40;;;;;;4936656;29;20704;-91
2021/12/08 12:38:50;;;;;;;13.67;10.00;;;3.40;91.30;;;;;;4937661;29;20255;-91
2021/12/08 12:41:29;;;;;;;16.03;10.50;;;3.50;91.30;;;;;;4936242;29;20180;-91
2021/12/08 12:44:14;;;;;;;19.83;12.80;;;3.50;91.30;;;;;;4936645;29;20182;-91
2021/12/08 12:49:35;;;;;;;18.03;12.57;;;3.60;91.40;;;;;;4939539;29;20208;-91
2021/12/08 12:52:05;;;;;;;16.87;12.30;;;3.60;91.30;;;;;;4937823;29;20653;-92
2021/12/08 12:54:32;;;;;;;21.17;14.30;;;3.60;91.30;;;;;;4938813;29;20544;-92
2021/12/08 12:56:59;;;;;;;17.43;12.87;;;3.60;91.30;;;;;;4938743;29;20176;-91
2021/12/08 12:59:44;;;;;;;19.60;12.90;;;3.60;91.40;;;;;;4940104;29;20210;-90
2021/12/08 13:02:20;;;;;;;21.83;13.23;;;3.60;91.50;;;;;;4941517;29;20201;-91
2021/12/08 13:04:56;;;;;;;18.77;13.37;;;3.60;91.50;;;;;;4940157;29;20178;-91
2021/12/08 13:07:22;;;;;;;18.87;13.87;;;3.60;91.40;;;;;;4940192;29;20175;-91
2021/12/08 13:09:56;;;;;;;22.47;13.87;;;3.50;91.40;;;;;;4936465;29;20298;-92
2021/12/08 13:12:24;;;;;;;17.93;13.43;;;3.50;91.50;;;;;;4937750;29;20693;-92
2021/12/08 13:15:11;;;;;;;19.67;13.30;;;3.50;91.50;;;;;;4937882;29;20601;-91
2021/12/08 13:17:37;;;;;;;21.73;13.17;;;3.40;91.50;;;;;;4936471;29;20267;-92
2021/12/08 13:20:10;;;;;;;20.13;12.80;;;3.40;91.60;;;;;;4936909;29;20195;-93
2021/12/08 13:22:55;;;;;;;20.07;13.47;;;3.40;91.50;;;;;;4937037;29;20176;-90
2021/12/08 13:28:29;;;;;;;22.00;13.97;;;3.50;91.50;;;;;;4938136;29;20169;-91
2021/12/08 13:31:30;;;;;;;18.13;13.47;;;3.40;91.50;;;;;;4937048;29;20212;-89
2021/12/08 13:33:59;;;;;;;17.37;12.60;;;3.40;91.40;;;;;;4937377;29;20191;-92
2021/12/08 13:36:31;;;;;;;29.83;14.57;;;3.40;91.40;;;;;;4936591;29;20176;-91
2021/12/08 13:38:57;;;;;;;19.30;13.50;;;3.40;91.40;;;;;;4936710;29;20208;-91
2021/12/08 13:41:28;;;;;;;18.60;12.57;;;3.30;91.40;;;;;;4936942;29;20172;-92
2021/12/08 13:43:54;;;;;;;18.10;12.50;;;3.30;91.40;;;;;;4937085;29;20172;-91
2021/12/08 13:46:45;;;;;;;22.73;14.13;;;3.30;91.50;;;;;;4940387;29;20172;-91
2021/12/08 13:49:27;;;;;;;21.57;14.57;;;3.30;91.50;;;;;;4944229;29;20187;-93
2021/12/08 13:52:07;;;;;;;24.83;15.40;;;3.30;91.60;;;;;;4943732;29;20197;-91
2021/12/08 13:54:42;;;;;;;25.57;15.77;;;3.30;91.60;;;;;;4937805;29;20169;-91
2021/12/08 13:57:34;;;;;;;20.13;15.77;;;3.30;91.60;;;;;;4941814;29;20175;-91
2021/12/08 14:00:09;;;;;;;25.27;16.13;;;3.30;91.60;;;;;;4942449;29;20203;-91